sensor_id;sensor_type;location;lat;lon;timestamp;P1;P2;P0
85869;PMS5003;76385;52.392;16.922;2024-02-26T00:10:09;57.500966291868835;57.500966291868835;30.000504152279394
85869;PMS5003;76385;52.392;16.922;2024-02-26T00:25:09;66.87173886349223;65.19994539190492;30.0922824885715
85869;PMS5003;76385;52.392;16.922;2024-02-26T00:40:09;56.30167778495897;52.16184853606492;23.183043793806632
85869;PMS5003;76385;52.392;16.922;2024-02-26T00:55:09;95.50480292916266;79.99547595776018;37.54889687813233
85869;PMS5003;76385;52.392;16.922;2024-02-26T01:10:09;68.33906755621166;57.762783291559856;24.406809841504167
85869;PMS5003;76385;52.392;16.922;2024-02-26T01:25:09;68.78526469261386;68.78526469261386;31.876098272186915
85869;PMS5003;76385;52.392;16.922;2024-02-26T01:40:09;69.39177114661699;56.85108961409584;28.42554480704792
85869;PMS5003;76385;52.392;16.922;2024-02-26T01:55:09;55.344454075716655;51.990244737794434;24.318017699936107
85869;PMS5003;76385;52.392;16.922;2024-02-26T02:10:09;64.01570633191731;54.750275152297704;24.427045837178976
85869;PMS5003;76385;52.392;16.922;2024-02-26T02:25:09;63.63233749524915;63.63233749524915;26.444607790233412
85869;PMS5003;76385;52.392;16.922;2024-02-26T02:40:09;64.82751472416098;61.5451089153427;32.0034566359782
85869;PMS5003;76385;52.392;16.922;2024-02-26T02:55:09;41.674549117577286;38.46881457007134;17.6315400112827
85869;PMS5003;76385;52.392;16.922;2024-02-26T03:10:09;58.638629993211445;56.29308479348299;17.20066479800869
85869;PMS5003;76385;52.392;16.922;2024-02-26T03:25:10;59.39332346845675;50.13722110973622;21.59757217034791
85869;PMS5003;76385;52.392;16.922;2024-02-26T03:40:10;66.0880878830265;64.61946370784814;30.10679559115652
85869;PMS5003;76385;52.392;16.922;2024-02-26T03:55:10;43.77740857550498;39.24871113665964;15.095658129484475
85869;PMS5003;76385;52.392;16.922;2024-02-26T04:10:10;57.39153083217345;50.217589478151766;20.724719467173745
85869;PMS5003;76385;52.392;16.922;2024-02-26T04:30:09;80.33707085952892;75.70223984840226;31.6713452426989
85869;PMS5003;76385;52.392;16.922;2024-02-26T04:45:09;60.06136417431036;53.979200713620706;22.047842545000005
85869;PMS5003;76385;52.392;16.922;2024-02-26T05:00:09;46.71973545682172;46.71973545682172;19.004638151927477
85869;PMS5003;76385;52.392;16.922;2024-02-26T05:15:09;53.67023962645914;39.46341149004349;18.942437515220874
85869;PMS5003;76385;52.392;16.922;2024-02-26T05:30:09;66.79520138635036;52.814810398509586;27.18409358746817
85869;PMS5003;76385;52.392;16.922;2024-02-26T05:45:09;52.89443525389221;52.89443525389221;22.105137121029582
85869;PMS5003;76385;52.392;16.922;2024-02-26T06:00:09;57.487392734196305;52.888401315460605;20.695461384310672
85869;PMS5003;76385;52.392;16.922;2024-02-26T06:15:09;87.58643785881345;77.3285667582317;35.50801534816762
85869;PMS5003;76385;52.392;16.922;2024-02-26T06:30:09;86.60457415503434;78.5106887199844;34.80370737071473
85869;PMS5003;76385;52.392;16.922;2024-02-26T06:45:09;64.31509940495012;58.23123865042781;27.811934877816267
85869;PMS5003;76385;52.392;16.922;2024-02-26T07:00:09;85.54153226698355;72.93541172237545;34.21661290679342
85869;PMS5003;76385;52.392;16.922;2024-02-26T07:15:09;86.1608891274763;77.09132185089985;38.999139289278745
85869;PMS5003;76385;52.392;16.922;2024-02-26T07:30:10;99.97086454084801;92.76575718655266;38.72745202933752
85869;PMS5003;76385;52.392;16.922;2024-02-26T07:45:09;84.14649403202857;84.14649403202857;36.58543218783851
85869;PMS5003;76385;52.392;16.922;2024-02-26T08:00:10;61.58862907420821;61.58862907420821;38.49289317138013
85869;PMS5003;76385;52.392;16.922;2024-02-26T08:15:10;116.10552386562917;108.23396292558651;52.14909122778259
85869;PMS5003;76385;52.392;16.922;2024-02-26T08:30:09;82.64273764271083;72.56435500335584;33.25866270987143
85869;PMS5003;76385;52.392;16.922;2024-02-26T08:45:10;96.49650766084065;91.41774409974377;48.756130186530015
85869;PMS5003;76385;52.392;16.922;2024-02-26T09:00:10;71.04796647162186;65.89956310411303;35.009142899060045
85869;PMS5003;76385;52.392;16.922;2024-02-26T09:15:09;36.44155605916269;36.44155605916269;20.82374631952154
85869;PMS5003;76385;52.392;16.922;2024-02-26T09:30:09;51.173425230174935;49.08471399629024;22.975823572731603
85869;PMS5003;76385;52.392;16.922;2024-02-26T09:45:09;39.380837820254605;39.380837820254605;17.617743235377063
85869;PMS5003;76385;52.392;16.922;2024-02-26T10:00:09;49.62331046850679;49.62331046850679;20.676379361877828
85869;PMS5003;76385;52.392;16.922;2024-02-26T10:15:09;49.690929071844856;49.690929071844856;20.704553779935356
85869;PMS5003;76385;52.392;16.922;2024-02-26T10:30:09;44.683768157385984;44.683768157385984;21.822305379188503
85869;PMS5003;76385;52.392;16.922;2024-02-26T10:45:09;55.438674939688994;49.16259853142232;15.690191020666697
85869;PMS5003;76385;52.392;16.922;2024-02-26T11:00:09;35.65577012821615;35.65577012821615;13.633088578435586
85869;PMS5003;76385;52.392;16.922;2024-02-26T11:15:09;33.57138398586923;33.57138398586923;12.589268994700962
85869;PMS5003;76385;52.392;16.922;2024-02-26T11:30:09;37.83250964831283;32.577994419380495;13.661739595224077
85869;PMS5003;76385;52.392;16.922;2024-02-26T11:55:09;34.65021174702711;34.65021174702711;16.800102665225264
85869;PMS5003;76385;52.392;16.922;2024-02-26T12:10:09;43.00778224987549;36.71396045721078;17.832495079216667
85869;PMS5003;76385;52.392;16.922;2024-02-26T12:25:09;33.56704956087843;25.175287170658823;10.48970298777451
85869;PMS5003;76385;52.392;16.922;2024-02-26T12:40:09;33.501677873033174;33.501677873033174;14.656984069452012
85869;PMS5003;76385;52.392;16.922;2024-02-26T12:55:09;30.410962792047833;30.410962792047833;14.681154451333436
85869;PMS5003;76385;52.392;16.922;2024-02-26T13:10:09;36.70288612833359;25.167693345143032;11.535192783190558
85869;PMS5003;76385;52.392;16.922;2024-02-26T13:25:09;35.68492406959049;32.53625429874427;15.7433488542311
85869;PMS5003;76385;52.392;16.922;2024-02-26T13:40:09;33.558371885379906;33.558371885379906;15.730486821271832
85869;PMS5003;76385;52.392;16.922;2024-02-26T13:55:09;27.2966609475523;20.997431498117155;9.448844174152718
85869;PMS5003;76385;52.392;16.922;2024-02-26T14:10:09;26.246789372646443;24.147046222834728;10.498715749058578
85869;PMS5003;76385;52.392;16.922;2024-02-26T14:25:09;31.47993891111089;31.47993891111089;12.591975564444354
85869;PMS5003;76385;52.392;16.922;2024-02-26T14:40:09;28.44040345368806;28.44040345368806;11.586831036687729
85869;PMS5003;76385;52.392;16.922;2024-02-26T14:55:09;26.321540261444582;26.321540261444582;15.79292415686675
85869;PMS5003;76385;52.392;16.922;2024-02-26T15:10:09;30.49561385730413;30.49561385730413;16.82516626609883
85869;PMS5003;76385;52.392;16.922;2024-02-26T15:25:09;46.05074171139066;39.77109511438284;16.745724258687513
85869;PMS5003;76385;52.392;16.922;2024-02-26T15:40:09;38.63260156152051;36.54435282846534;13.573616764858556
85869;PMS5003;76385;52.392;16.922;2024-02-26T15:55:09;52.1108948116911;43.77315164182052;17.71770423597497
85869;PMS5003;76385;52.392;16.922;2024-02-26T16:10:09;32.19177529346125;32.19177529346125;16.615109828883224
85869;PMS5003;76385;52.392;16.922;2024-02-26T16:25:09;39.27956114585712;32.04385251372555;17.572435249462394
85869;PMS5003;76385;52.392;16.922;2024-02-26T16:40:09;35.97228371311094;32.88894510913;15.416693019904686
85869;PMS5003;76385;52.392;16.922;2024-02-26T16:55:09;41.86855035436976;35.74144542446199;17.36013063473868
85869;PMS5003;76385;52.392;16.922;2024-02-26T17:10:10;46.868595190785214;40.75530016590019;19.35876757880259
85869;PMS5003;76385;52.392;16.922;2024-02-26T17:25:09;51.3456091489269;43.291395949095225;17.1152030496423
85869;PMS5003;76385;52.392;16.922;2024-02-26T17:40:10;57.072000121451254;48.06063168122211;20.02526320050921
85869;PMS5003;76385;52.392;16.922;2024-02-26T17:55:09;51.87188104057799;46.884200171291646;21.945795824859918
85869;PMS5003;76385;52.392;16.922;2024-02-26T18:10:09;47.92117018784165;39.934308489868044;17.97043882044062
85869;PMS5003;76385;52.392;16.922;2024-02-26T18:25:09;43.84748685233774;40.85788547604198;18.934142049873113
85869;PMS5003;76385;52.392;16.922;2024-02-26T18:40:09;31.887189227109133;31.887189227109133;16.940069276901728
85869;PMS5003;76385;52.392;16.922;2024-02-26T18:55:09;53.68432379763409;47.7193989312303;27.83631604321768
85869;PMS5003;76385;52.392;16.922;2024-02-26T19:10:09;39.67461761428923;39.67461761428923;19.837308807144616
85869;PMS5003;76385;52.392;16.922;2024-02-26T19:25:09;53.37582680722284;48.433620621368874;20.757265980586663
85869;PMS5003;76385;52.392;16.922;2024-02-26T19:40:09;54.10654818294682;52.139037339930574;18.691353008654357
85869;PMS5003;76385;52.392;16.922;2024-02-26T19:55:09;34.9410672227354;32.02931162084078;14.558778009473082
85869;PMS5003;76385;52.392;16.922;2024-02-26T20:10:09;67.9478267871763;50.96087009038222;22.64927559572543
85869;PMS5003;76385;52.392;16.922;2024-02-26T20:25:09;40.829640763941285;37.981061175759336;17.0914775290917
85869;PMS5003;76385;52.392;16.922;2024-02-26T20:40:09;44.76627076138461;39.05142768546317;17.14452922776432
85869;PMS5003;76385;52.392;16.922;2024-02-26T20:55:09;42.74923936003632;40.84927316625693;19.949645034683616
85869;PMS5003;76385;52.392;16.922;2024-02-26T21:10:09;32.27612563328049;32.27612563328049;18.036658442127333
85869;PMS5003;76385;52.392;16.922;2024-02-26T21:25:09;38.69896176611935;31.14794483614485;14.158156743702204
85869;PMS5003;76385;52.392;16.922;2024-02-26T21:40:09;39.38420793490875;39.38420793490875;20.62982320399982
85869;PMS5003;76385;52.392;16.922;2024-02-26T21:55:09;47.481193251314025;47.481193251314025;26.06810609876064
85869;PMS5003;76385;52.392;16.922;2024-02-26T22:10:09;55.634792073111996;46.36232672759333;20.399423760141065
85869;PMS5003;76385;52.392;16.922;2024-02-26T22:25:09;63.275103992170855;55.021829558409436;28.427945271844877
85869;PMS5003;76385;52.392;16.922;2024-02-26T22:40:09;53.881109099465036;46.57519600123249;21.004500157418573
85869;PMS5003;76385;52.392;16.922;2024-02-26T22:55:09;42.895833859379294;42.895833859379294;17.34086900698312
85869;PMS5003;76385;52.392;16.922;2024-02-26T23:10:09;46.249847990889755;46.249847990889755;21.764634348654003
85869;PMS5003;76385;52.392;16.922;2024-02-26T23:25:09;49.557210317566046;49.557210317566046;29.734326190539626
85869;PMS5003;76385;52.392;16.922;2024-02-26T23:40:09;46.77549129252537;46.77549129252537;25.186803003667507
85869;PMS5003;76385;52.392;16.922;2024-02-26T23:55:10;45.442061221614075;45.442061221614075;24.948582631474395
